Aérodrome :
LOGIN :

S'inscrire | Disclaimer

   EN    FR    IT 

 










Légende :    VFR   VFR Marginal   IFR   IFR Intensif   IFR Très Intensif
Visi : 
Plafond : 
>= 8 km
>= 3000ft
5 à 8 km
1000 à 3000 ft
1500m à 5 km
500 à 1000 ft
800 à 1500m
200 à 500 ft
< 800m
< 200 ft
Symboles :   Orages  Brouillard  Fortes neiges  Fortes précipitations  Vent > 20 kt
SIGMETs :   Divers  Orages  Givrage  Turbulence  Onde Orograph.  Cendres Volcan.






- Altitude de l'aérodrome : 117 ft
- Code IATA : NWI


EGSH - Norwich

DERNIER METAR :
  • 240450Z AUTO 23003KT 4500 BR BKN003/// OVC007/// 06/05 Q1023

METARs EXPIRÉS :
  • 240420Z AUTO 22004KT 190V260 6000 SCT003/// BKN007/// OVC010/// 06/05 Q1023
  • 240350Z AUTO 25003KT 5000 BR SCT004/// BKN007/// OVC011/// 06/05 Q1023
  • 240320Z AUTO 25004KT 6000 SCT004/// OVC008/// 06/05 Q1023
  • 240250Z AUTO 25004KT 6000 BKN008/// OVC012/// 06/05 Q1024
  • 240220Z AUTO 24003KT 3800 BR FEW003/// SCT007/// OVC011/// 06/05 Q1024

TAF AMD TAF EGSH
Valide du 24 à 03h jusqu'au 24 à 12h UTC


240330Z 2403/2412 22004KT 6000 SCT002 BKN008
TEMPO 2403/2409 2000 BR BKN002
PROB40
TEMPO 2403/2409 1200 -DZ BKN001
BECMG 2409/2412 BKN012
ATIS : +44 1603 420 640



MET'MAP, la Météo Aéronautique d'un coup d'oeil ! - Copyright ORBIFLY Décembre 2007 - Disclaimer

ORBIFLY MET'MAP TEAM :

Programmation & Développement : Alexandra Zaïnal
Sur une idée originale de : Baudouin d'Aumeries
Assistance à la programmation : Marc-Olivier Méhu
Soutien technique & logistique : Manuel Goepfert

Contact : metmap@orbifly.com




SOURCES & CREDITS :

   NOAA